createdAt,value
2017-01-10T00:00:55.859Z,99.99
2017-01-10T00:02:06.306Z,99.99
2017-01-10T00:03:16.733Z,99.99
2017-01-10T00:04:27.164Z,99.99
2017-01-10T00:05:37.794Z,99.99
2017-01-10T00:06:48.243Z,99.99
2017-01-10T00:07:58.669Z,99.99
2017-01-10T00:09:09.095Z,99.99
2017-01-10T00:10:34.069Z,99.99
2017-01-10T00:11:44.496Z,99.99
2017-01-10T00:12:54.920Z,99.99
2017-01-10T00:14:05.348Z,99.99
2017-01-10T00:15:15.770Z,99.99
2017-01-10T00:16:26.499Z,99.99
2017-01-10T00:17:36.926Z,99.99
2017-01-10T00:18:47.378Z,99.99
2017-01-10T00:19:57.805Z,99.99
2017-01-10T00:21:08.239Z,99.99
2017-01-10T00:22:18.929Z,99.99
2017-01-10T00:23:29.361Z,99.99
2017-01-10T00:24:39.789Z,99.99
2017-01-10T00:25:50.235Z,99.99
2017-01-10T00:27:00.663Z,99.99
2017-01-10T00:29:36.069Z,99.99
2017-01-10T00:31:01.042Z,99.99
2017-01-10T00:32:11.468Z,99.99
2017-01-10T00:33:21.894Z,99.99
2017-01-10T00:34:32.318Z,99.99
2017-01-10T00:35:42.747Z,99.99
2017-01-10T00:36:53.177Z,99.99
2017-01-10T00:38:03.601Z,99.99
2017-01-10T00:39:14.022Z,99.99
2017-01-10T00:40:24.448Z,99.99
2017-01-10T00:41:34.873Z,99.99
2017-01-10T00:42:45.301Z,99.99
2017-01-10T00:43:55.724Z,99.99
2017-01-10T00:45:06.495Z,99.99
2017-01-10T00:46:16.966Z,99.99
2017-01-10T00:47:27.529Z,99.99
2017-01-10T00:48:38.021Z,99.99
2017-01-10T00:49:48.479Z,99.99
2017-01-10T00:50:59.800Z,99.99
2017-01-10T00:52:10.220Z,99.99
2017-01-10T00:53:20.628Z,99.99
2017-01-10T00:54:31.037Z,99.99
2017-01-10T00:55:41.453Z,99.99
2017-01-10T00:56:51.865Z,99.99
2017-01-10T00:58:02.281Z,99.99
2017-01-10T00:59:27.247Z,99.99
2017-01-10T01:00:37.666Z,99.99
2017-01-10T01:01:48.074Z,99.99
2017-01-10T01:02:58.482Z,99.99
2017-01-10T01:04:08.893Z,99.99
2017-01-10T01:05:19.302Z,99.99
2017-01-10T01:06:29.711Z,99.99
2017-01-10T01:07:40.331Z,99.99
2017-01-10T01:09:05.285Z,99.99
2017-01-10T01:10:15.697Z,99.99
2017-01-10T01:11:26.135Z,99.99
2017-01-10T01:12:36.554Z,99.99
2017-01-10T01:13:47.165Z,99.99
2017-01-10T01:14:57.577Z,99.99
2017-01-10T01:16:08.025Z,99.99
2017-01-10T01:17:18.556Z,99.99
2017-01-10T01:18:29.286Z,99.99
2017-01-10T01:19:39.815Z,99.99
2017-01-10T01:20:50.341Z,99.99
2017-01-10T01:22:00.871Z,99.99
2017-01-10T01:23:11.422Z,99.99
2017-01-10T01:24:22.154Z,99.99
2017-01-10T01:25:32.682Z,99.99
2017-01-10T01:26:57.735Z,99.99
2017-01-10T01:28:08.293Z,99.99
2017-01-10T01:30:58.698Z,99.99
2017-01-10T01:32:09.228Z,99.99
2017-01-10T01:33:19.783Z,99.99
2017-01-10T01:34:30.311Z,99.99
2017-01-10T01:35:41.145Z,99.99
2017-01-10T01:36:51.673Z,99.99
2017-01-10T01:38:02.199Z,99.99
2017-01-10T01:39:12.756Z,99.99
2017-01-10T01:40:23.486Z,99.99
2017-01-10T01:41:34.014Z,99.99
2017-01-10T01:42:44.543Z,99.99
2017-01-10T01:43:55.070Z,99.99
2017-01-10T01:45:05.600Z,99.99
2017-01-10T01:46:16.127Z,99.99
2017-01-10T01:47:26.654Z,99.99
2017-01-10T01:48:37.183Z,99.99
2017-01-10T01:49:47.710Z,99.99
2017-01-10T01:50:58.819Z,99.99
2017-01-10T01:52:09.349Z,99.99
2017-01-10T01:53:19.876Z,99.99
2017-01-10T01:54:30.437Z,99.99
2017-01-10T01:55:40.967Z,99.99
2017-01-10T01:56:51.496Z,99.99
2017-01-10T01:58:02.329Z,99.99
2017-01-10T01:59:12.858Z,99.99
2017-01-10T02:00:23.390Z,99.99
2017-01-10T02:01:33.915Z,99.99
2017-01-10T02:02:44.441Z,99.99
2017-01-10T02:03:55.274Z,99.99
2017-01-10T02:05:05.811Z,99.99
2017-01-10T02:06:16.944Z,99.99
2017-01-10T02:07:27.469Z,99.99
2017-01-10T02:08:38.576Z,99.99
2017-01-10T02:09:49.110Z,99.99
2017-01-10T02:10:59.636Z,99.99
2017-01-10T02:12:10.165Z,99.99
2017-01-10T02:13:20.691Z,99.99
2017-01-10T02:14:31.221Z,99.99
2017-01-10T02:15:41.762Z,99.99
2017-01-10T02:16:52.319Z,99.99
2017-01-10T02:18:02.843Z,99.99
2017-01-10T02:19:13.372Z,99.99
2017-01-10T02:20:23.903Z,99.99
2017-01-10T02:21:34.731Z,99.99
2017-01-10T02:22:45.258Z,99.99
2017-01-10T02:23:55.787Z,99.99
2017-01-10T02:25:06.322Z,99.99
2017-01-10T02:26:16.844Z,99.99
2017-01-10T02:27:27.370Z,99.99
2017-01-10T02:28:37.909Z,99.99
2017-01-10T02:29:48.439Z,99.99
2017-01-10T02:30:58.966Z,99.99
2017-01-10T02:32:09.494Z,99.99
2017-01-10T02:33:34.747Z,99.99
2017-01-10T02:34:45.275Z,99.99
2017-01-10T02:35:55.808Z,99.99
2017-01-10T02:37:06.381Z,99.99
2017-01-10T02:38:16.907Z,99.99
2017-01-10T02:39:27.431Z,99.99
2017-01-10T02:40:37.920Z,99.99
2017-01-10T02:41:48.357Z,99.99
2017-01-10T02:42:58.797Z,99.99
2017-01-10T02:44:09.231Z,99.99
2017-01-10T02:45:19.873Z,99.99
2017-01-10T02:46:30.308Z,99.99
2017-01-10T02:47:40.746Z,99.99
2017-01-10T02:48:51.181Z,99.99
2017-01-10T02:50:01.620Z,99.99
2017-01-10T02:51:12.254Z,99.99
2017-01-10T02:52:22.695Z,99.99
2017-01-10T02:53:33.129Z,99.99
2017-01-10T02:54:43.568Z,99.99
2017-01-10T02:55:54.006Z,99.99
2017-01-10T02:57:04.475Z,99.99
2017-01-10T02:58:14.911Z,99.99
2017-01-10T02:59:25.350Z,99.99
2017-01-10T03:00:35.809Z,99.99
2017-01-10T03:01:46.246Z,99.99
2017-01-10T03:02:56.688Z,99.99
2017-01-10T03:04:07.152Z,99.99
2017-01-10T03:05:18.159Z,99.99
2017-01-10T03:06:28.595Z,99.99
2017-01-10T03:07:39.031Z,99.99
2017-01-10T03:08:49.469Z,99.99
2017-01-10T03:09:59.906Z,99.99
2017-01-10T03:11:10.342Z,99.99
2017-01-10T03:12:20.773Z,99.99
2017-01-10T03:13:31.228Z,99.99
2017-01-10T03:14:41.962Z,99.99
2017-01-10T03:15:52.396Z,99.99
2017-01-10T03:17:02.833Z,99.99
2017-01-10T03:18:13.274Z,99.99
2017-01-10T03:19:23.713Z,99.99
2017-01-10T03:20:48.724Z,99.99
2017-01-10T03:21:59.164Z,99.99
2017-01-10T03:23:09.608Z,99.99
2017-01-10T03:24:20.049Z,99.99
2017-01-10T03:25:30.487Z,99.99
2017-01-10T03:26:41.223Z,99.99
2017-01-10T03:27:51.662Z,99.99
2017-01-10T03:29:02.102Z,99.99
2017-01-10T03:30:12.543Z,99.99
2017-01-10T03:31:23.179Z,99.99
2017-01-10T03:32:33.617Z,99.99
2017-01-10T03:33:44.058Z,99.99
2017-01-10T03:34:54.457Z,99.99
2017-01-10T03:36:04.775Z,99.99
2017-01-10T03:37:15.113Z,99.99
2017-01-10T03:38:25.433Z,99.99
2017-01-10T03:39:35.749Z,99.99
2017-01-10T03:41:00.637Z,99.99
2017-01-10T03:42:10.959Z,99.99
2017-01-10T03:43:21.275Z,99.99
2017-01-10T03:44:31.593Z,99.99
2017-01-10T03:45:41.909Z,99.99
2017-01-10T03:46:52.233Z,99.99
2017-01-10T03:48:02.552Z,99.99
2017-01-10T03:49:12.868Z,99.99
2017-01-10T03:50:23.196Z,99.99
2017-01-10T03:51:33.513Z,99.99
2017-01-10T03:52:43.830Z,99.99
2017-01-10T03:55:19.343Z,99.99
2017-01-10T03:56:29.659Z,99.99
2017-01-10T03:57:39.974Z,99.99
2017-01-10T03:58:50.293Z,99.99
2017-01-10T04:00:00.911Z,99.99
2017-01-10T04:01:11.238Z,99.99
2017-01-10T04:02:21.558Z,99.99
2017-01-10T04:03:31.872Z,99.99
2017-01-10T04:04:42.188Z,99.99
2017-01-10T04:05:52.504Z,99.99
2017-01-10T04:07:02.824Z,99.99
2017-01-10T04:08:13.139Z,99.99
2017-01-10T04:09:38.026Z,99.99
2017-01-10T04:10:48.376Z,99.99
2017-01-10T04:11:58.786Z,99.99
2017-01-10T04:13:09.200Z,99.99
2017-01-10T04:14:19.610Z,99.99
2017-01-10T04:15:30.018Z,99.99
2017-01-10T04:16:40.453Z,99.99
2017-01-10T04:17:50.866Z,99.65
2017-01-10T04:19:01.277Z,99.99
2017-01-10T04:20:11.686Z,99.99
2017-01-10T04:21:22.095Z,99.11
2017-01-10T04:22:32.505Z,99.99
2017-01-10T04:23:42.915Z,99.99
2017-01-10T04:24:53.339Z,99.69
2017-01-10T04:26:03.748Z,99.99
2017-01-10T04:27:14.456Z,99.99
2017-01-10T04:28:24.873Z,99.99
2017-01-10T04:29:35.281Z,99.99
2017-01-10T04:30:45.691Z,99.99
2017-01-10T04:31:56.107Z,99.99
2017-01-10T04:33:06.820Z,99.99
2017-01-10T04:34:17.237Z,99.99
2017-01-10T04:35:27.646Z,99.99
2017-01-10T04:36:38.052Z,99.99
2017-01-10T04:37:48.457Z,99.99
2017-01-10T04:38:59.173Z,99.99
2017-01-10T04:40:09.581Z,99.99
2017-01-10T04:41:19.989Z,99.99
2017-01-10T04:42:30.397Z,99.99
2017-01-10T04:43:40.803Z,99.99
2017-01-10T04:44:51.249Z,99.99
2017-01-10T04:46:01.777Z,99.99
2017-01-10T04:47:12.305Z,99.99
2017-01-10T04:48:22.835Z,99.99
2017-01-10T04:49:33.366Z,99.99
2017-01-10T04:50:44.193Z,99.99
2017-01-10T04:51:54.723Z,99.99
2017-01-10T04:53:05.255Z,99.99
2017-01-10T04:54:15.780Z,99.99
2017-01-10T04:55:26.271Z,99.99
2017-01-10T04:56:37.007Z,99.99
2017-01-10T04:57:47.445Z,99.99
2017-01-10T04:58:57.880Z,99.99
2017-01-10T05:00:08.322Z,99.99
2017-01-10T05:01:18.757Z,99.99
2017-01-10T05:02:43.769Z,99.99
2017-01-10T05:03:54.206Z,99.99
2017-01-10T05:05:04.646Z,99.99
2017-01-10T05:06:15.085Z,99.99
2017-01-10T05:07:25.730Z,99.99
2017-01-10T05:08:36.167Z,99.99
2017-01-10T05:09:46.628Z,99.99
2017-01-10T05:10:57.069Z,99.99
2017-01-10T05:12:07.509Z,99.99
2017-01-10T05:13:17.957Z,99.99
2017-01-10T05:14:28.394Z,99.99
2017-01-10T05:15:53.376Z,99.99
2017-01-10T05:17:03.814Z,99.99
2017-01-10T05:18:14.249Z,99.99
2017-01-10T05:19:24.896Z,99.99
2017-01-10T05:20:35.332Z,99.99
2017-01-10T05:21:45.766Z,99.99
2017-01-10T05:22:56.207Z,99.99
2017-01-10T05:24:06.639Z,99.99
2017-01-10T05:25:17.076Z,99.99
2017-01-10T05:26:27.509Z,99.99
2017-01-10T05:27:37.949Z,99.99
2017-01-10T05:28:48.381Z,99.99
2017-01-10T05:29:59.127Z,99.99
2017-01-10T05:31:09.567Z,99.99
2017-01-10T05:32:20.008Z,99.99
2017-01-10T05:33:30.451Z,99.99
2017-01-10T05:34:40.886Z,99.99
2017-01-10T05:35:51.325Z,99.99
2017-01-10T05:37:01.758Z,99.99
2017-01-10T05:38:12.197Z,99.99
2017-01-10T05:39:22.635Z,99.99
2017-01-10T05:40:33.070Z,99.99
2017-01-10T05:41:43.508Z,99.99
2017-01-10T05:42:53.940Z,99.99
2017-01-10T05:44:04.383Z,99.99
2017-01-10T05:45:14.821Z,99.99
2017-01-10T05:46:25.284Z,99.99
2017-01-10T05:47:36.018Z,99.99
2017-01-10T05:48:46.458Z,99.99
2017-01-10T05:49:56.894Z,99.99
2017-01-10T05:51:21.870Z,99.99
2017-01-10T05:52:32.304Z,99.99
2017-01-10T05:53:42.735Z,99.99
2017-01-10T05:54:53.170Z,99.99
2017-01-10T05:56:03.600Z,99.99
2017-01-10T05:57:14.037Z,99.99
2017-01-10T05:58:24.471Z,99.99
2017-01-10T05:59:34.903Z,99.99
2017-01-10T06:00:45.338Z,99.99
2017-01-10T06:02:10.320Z,99.99
2017-01-10T06:03:20.754Z,99.99
2017-01-10T06:04:31.757Z,99.99
2017-01-10T06:05:42.192Z,99.99
2017-01-10T06:06:52.634Z,99.99
2017-01-10T06:08:03.068Z,99.99
2017-01-10T06:09:13.702Z,99.99
2017-01-10T06:10:24.165Z,99.99
2017-01-10T06:11:34.601Z,99.99
2017-01-10T06:12:45.047Z,99.99
2017-01-10T06:13:55.488Z,99.99
2017-01-10T06:15:20.468Z,99.99
2017-01-10T06:16:30.900Z,99.99
2017-01-10T06:17:55.882Z,99.99
2017-01-10T06:19:06.318Z,99.99
2017-01-10T06:20:16.753Z,99.99
2017-01-10T06:21:27.189Z,99.99
2017-01-10T06:22:37.621Z,99.99
2017-01-10T06:23:48.061Z,99.99
2017-01-10T06:24:58.524Z,99.99
2017-01-10T06:26:08.963Z,99.99
2017-01-10T06:27:19.399Z,99.99
2017-01-10T06:28:29.838Z,99.99
2017-01-10T06:29:40.235Z,99.99
2017-01-10T06:30:50.553Z,99.99
2017-01-10T06:32:01.069Z,99.99
2017-01-10T06:33:11.389Z,99.99
2017-01-10T06:34:21.714Z,99.99
2017-01-10T06:35:32.027Z,99.99
2017-01-10T06:36:42.345Z,99.99
2017-01-10T06:37:52.972Z,99.99
2017-01-10T06:39:03.292Z,99.99
2017-01-10T06:40:13.631Z,99.99
2017-01-10T06:41:23.952Z,99.99
2017-01-10T06:42:34.267Z,99.99
2017-01-10T06:43:44.880Z,99.99
2017-01-10T06:44:55.202Z,99.99
2017-01-10T06:46:05.517Z,99.99
2017-01-10T06:47:15.835Z,99.99
2017-01-10T06:48:26.712Z,99.99
2017-01-10T06:49:37.031Z,99.99
2017-01-10T06:50:47.345Z,99.99
2017-01-10T06:51:57.659Z,99.99
2017-01-10T06:53:07.976Z,99.99
2017-01-10T06:54:18.294Z,99.99
2017-01-10T06:55:28.608Z,99.99
2017-01-10T06:56:38.926Z,99.99
2017-01-10T06:57:49.241Z,99.99
2017-01-10T06:58:59.557Z,99.99
2017-01-10T07:00:09.875Z,99.99
2017-01-10T07:01:20.190Z,99.99
2017-01-10T07:02:30.522Z,99.99
2017-01-10T07:03:40.861Z,99.99
2017-01-10T07:04:51.213Z,99.99
2017-01-10T07:06:01.657Z,99.99
2017-01-10T07:07:12.092Z,99.99
2017-01-10T07:08:22.526Z,99.99
2017-01-10T07:09:32.985Z,99.99
2017-01-10T07:10:43.461Z,99.99
2017-01-10T07:11:53.989Z,99.99
2017-01-10T07:13:04.524Z,99.99
2017-01-10T07:14:15.050Z,99.99
2017-01-10T07:15:25.575Z,99.99
2017-01-10T07:16:36.101Z,99.99
2017-01-10T07:17:46.629Z,99.99
2017-01-10T07:18:57.161Z,99.99
2017-01-10T07:20:07.689Z,99.99
2017-01-10T07:21:18.219Z,99.99
2017-01-10T07:22:28.744Z,99.99
2017-01-10T07:23:39.306Z,99.99
2017-01-10T07:25:04.362Z,99.99
2017-01-10T07:26:14.891Z,99.99
2017-01-10T07:27:25.415Z,99.99
2017-01-10T07:28:50.470Z,99.99
2017-01-10T07:30:00.999Z,99.99
2017-01-10T07:31:11.723Z,99.99
2017-01-10T07:32:22.251Z,99.99
2017-01-10T07:33:32.785Z,99.99
2017-01-10T07:34:43.311Z,99.99
2017-01-10T07:35:54.065Z,99.99
2017-01-10T07:37:04.596Z,99.99
2017-01-10T07:38:15.120Z,99.99
2017-01-10T07:39:25.649Z,99.99
2017-01-10T07:40:36.172Z,99.99
2017-01-10T07:41:46.900Z,99.99
2017-01-10T07:42:57.427Z,99.99
2017-01-10T07:44:07.952Z,99.99
2017-01-10T07:45:18.485Z,99.99
2017-01-10T07:47:54.266Z,99.99
2017-01-10T07:49:19.318Z,99.99
2017-01-10T07:50:29.844Z,99.99
2017-01-10T07:51:40.376Z,99.99
2017-01-10T07:52:50.905Z,99.99
2017-01-10T07:54:01.437Z,99.99
2017-01-10T07:55:11.964Z,99.99
2017-01-10T07:56:22.437Z,99.99
2017-01-10T07:57:32.876Z,99.99
2017-01-10T07:58:43.340Z,99.99
2017-01-10T07:59:53.776Z,99.99
2017-01-10T08:01:04.211Z,99.99
2017-01-10T08:02:14.646Z,99.99
2017-01-10T08:03:25.080Z,99.99
2017-01-10T08:04:35.520Z,99.99
2017-01-10T08:05:45.955Z,99.99
2017-01-10T08:06:56.390Z,99.99
2017-01-10T08:08:06.827Z,99.99
2017-01-10T08:09:17.260Z,99.99
2017-01-10T08:10:27.698Z,99.99
2017-01-10T08:11:38.132Z,99.99
2017-01-10T08:12:48.574Z,99.99
2017-01-10T08:13:58.901Z,99.99
2017-01-10T08:15:09.418Z,99.99
2017-01-10T08:16:19.737Z,99.99
2017-01-10T08:17:30.050Z,99.99
2017-01-10T08:18:40.366Z,99.99
2017-01-10T08:19:50.688Z,99.99
2017-01-10T08:21:01.205Z,99.99
2017-01-10T08:22:11.526Z,99.99
2017-01-10T08:23:21.849Z,99.99
2017-01-10T08:24:32.168Z,99.99
2017-01-10T08:25:42.493Z,99.99
2017-01-10T08:26:52.808Z,99.99
2017-01-10T08:28:03.120Z,99.99
2017-01-10T08:29:13.440Z,99.98
2017-01-10T08:30:23.755Z,99.99
2017-01-10T08:31:34.071Z,99.65
2017-01-10T08:32:44.689Z,99.74
2017-01-10T08:33:55.005Z,99.5
2017-01-10T08:35:05.321Z,99.6
2017-01-10T08:36:15.664Z,99.69
2017-01-10T08:37:25.977Z,99.99
2017-01-10T08:38:36.597Z,99.65
2017-01-10T08:39:46.912Z,99.99
2017-01-10T08:40:57.231Z,99.99
2017-01-10T08:42:07.555Z,99.99
2017-01-10T08:43:32.442Z,99.99
2017-01-10T08:44:43.063Z,99.99
2017-01-10T08:45:53.382Z,99.99
2017-01-10T08:47:03.703Z,99.98
2017-01-10T08:48:14.025Z,99.4
2017-01-10T08:49:24.706Z,99.99
2017-01-10T08:50:35.146Z,99.5
2017-01-10T08:51:45.610Z,99.45
2017-01-10T08:52:56.047Z,99.99
2017-01-10T08:54:06.486Z,99.99
2017-01-10T08:55:16.924Z,99.99
2017-01-10T08:56:27.364Z,99.99
2017-01-10T08:57:37.800Z,99.99
2017-01-10T08:59:02.779Z,99.99
2017-01-10T09:00:13.214Z,99.99
2017-01-10T09:01:23.656Z,99.99
2017-01-10T09:02:34.089Z,99.99
2017-01-10T09:03:44.530Z,99.4
2017-01-10T09:04:54.970Z,99.84
2017-01-10T09:06:05.605Z,99.99
2017-01-10T09:07:16.047Z,99.6
2017-01-10T09:08:26.490Z,99.65
2017-01-10T09:09:36.937Z,99.99
2017-01-10T09:10:47.372Z,99.99
2017-01-10T09:11:58.111Z,99.99
2017-01-10T09:13:08.548Z,99.99
2017-01-10T09:14:18.986Z,99.99
2017-01-10T09:15:29.421Z,99.84
2017-01-10T09:16:39.856Z,99.45
2017-01-10T09:17:50.292Z,99.45
2017-01-10T09:19:00.728Z,99.65
2017-01-10T09:20:11.164Z,99.65
2017-01-10T09:21:21.599Z,99.45
2017-01-10T09:22:32.032Z,99.84
2017-01-10T09:23:42.431Z,98.87
2017-01-10T09:24:52.748Z,99.45
2017-01-10T09:26:03.067Z,98.97
2017-01-10T09:27:13.385Z,99.55
2017-01-10T09:28:23.701Z,98.1
2017-01-10T09:29:48.790Z,98.1
2017-01-10T09:30:59.109Z,97.91
2017-01-10T09:32:09.431Z,98.2
2017-01-10T09:33:19.749Z,97.62
2017-01-10T09:34:30.067Z,98.15
2017-01-10T09:35:40.385Z,97.91
2017-01-10T09:36:50.704Z,97.57
2017-01-10T09:38:01.030Z,97.77
2017-01-10T09:39:11.356Z,97.57
2017-01-10T09:40:21.674Z,98.05
2017-01-10T09:41:31.991Z,98
2017-01-10T09:42:56.878Z,97.77
2017-01-10T09:44:07.201Z,98.05
2017-01-10T09:45:18.092Z,98.2
2017-01-10T09:46:43.183Z,97.81
2017-01-10T09:47:53.501Z,97.91
2017-01-10T09:49:03.836Z,97.77
2017-01-10T09:50:14.152Z,97.67
2017-01-10T09:51:24.471Z,97.77
2017-01-10T09:52:34.783Z,97.96
2017-01-10T09:53:45.100Z,98.1
2017-01-10T09:54:55.447Z,97.96
2017-01-10T09:56:06.062Z,97.86
2017-01-10T09:57:16.380Z,97.09
2017-01-10T09:58:26.694Z,97.67
2017-01-10T09:59:37.012Z,97.96
2017-01-10T10:00:47.332Z,97.86
2017-01-10T10:01:57.648Z,97.19
2017-01-10T10:03:07.965Z,96.99
2017-01-10T10:04:18.285Z,96.89
2017-01-10T10:05:28.600Z,97.09
2017-01-10T10:06:38.923Z,97.38
2017-01-10T10:08:03.809Z,97.57
2017-01-10T10:09:14.129Z,97.19
2017-01-10T10:10:24.446Z,97.19
2017-01-10T10:11:34.793Z,96.99
2017-01-10T10:12:59.694Z,96.8
2017-01-10T10:14:10.317Z,96.99
2017-01-10T10:15:20.643Z,96.51
2017-01-10T10:16:30.959Z,95.64
2017-01-10T10:17:41.276Z,96.7
2017-01-10T10:18:51.593Z,95.98
2017-01-10T10:20:01.914Z,96.22
2017-01-10T10:21:12.230Z,95.4
2017-01-10T10:22:22.546Z,95.2
2017-01-10T10:23:32.864Z,95.88
2017-01-10T10:24:43.487Z,95.98
2017-01-10T10:26:08.372Z,95.88
2017-01-10T10:27:18.687Z,95.59
2017-01-10T10:28:29.006Z,95.98
2017-01-10T10:29:39.325Z,95.88
2017-01-10T10:30:49.943Z,95.98
2017-01-10T10:32:00.272Z,95.11
2017-01-10T10:33:10.600Z,94.92
2017-01-10T10:34:20.953Z,94.43
2017-01-10T10:35:31.691Z,94.62
2017-01-10T10:36:42.127Z,95.2
2017-01-10T10:37:52.565Z,94.62
2017-01-10T10:39:03.004Z,93.61
2017-01-10T10:40:13.442Z,93.71
2017-01-10T10:41:23.879Z,94.48
2017-01-10T10:42:34.314Z,94.77
2017-01-10T10:43:44.748Z,93.9
2017-01-10T10:44:55.756Z,92.83
2017-01-10T10:46:06.193Z,92.74
2017-01-10T10:47:16.950Z,92.65
2017-01-10T10:48:27.391Z,92.59
2017-01-10T10:49:37.824Z,91.97
2017-01-10T10:50:48.259Z,92.3
2017-01-10T10:53:23.675Z,93.03
2017-01-10T10:54:48.667Z,92.65
2017-01-10T10:55:59.140Z,92.83
2017-01-10T10:57:09.669Z,93.23
2017-01-10T10:58:20.496Z,93.03
2017-01-10T10:59:31.028Z,93.41
2017-01-10T11:00:41.569Z,92.74
2017-01-10T11:01:52.100Z,92.74
2017-01-10T11:03:17.353Z,92.07
2017-01-10T11:04:27.878Z,92.11
2017-01-10T11:05:38.404Z,93.03
2017-01-10T11:07:03.460Z,92.4
2017-01-10T11:08:13.993Z,92.11
2017-01-10T11:09:24.969Z,91.33
2017-01-10T11:10:35.505Z,91.72
2017-01-10T11:11:46.033Z,91.43
2017-01-10T11:12:56.569Z,91.05
2017-01-10T11:14:07.102Z,90.95
2017-01-10T11:15:17.629Z,91.82
2017-01-10T11:18:07.741Z,90.75
2017-01-10T11:19:18.267Z,90.12
2017-01-10T11:20:28.799Z,90.75
2017-01-10T11:21:39.331Z,90.66
2017-01-10T11:22:49.891Z,90.51
2017-01-10T11:24:00.426Z,90.12
2017-01-10T11:25:10.956Z,90.03
2017-01-10T11:26:21.483Z,90.22
2017-01-10T11:27:32.010Z,89.45
2017-01-10T11:28:42.541Z,89.93
2017-01-10T11:29:53.075Z,89.89
2017-01-10T11:31:03.808Z,90.12
2017-01-10T11:32:14.336Z,90.12
2017-01-10T11:33:24.868Z,90.03
2017-01-10T11:34:35.395Z,90.03
2017-01-10T11:36:00.447Z,88.91
2017-01-10T11:37:11.284Z,88.33
2017-01-10T11:38:21.813Z,89.39
2017-01-10T11:39:32.342Z,89.39
2017-01-10T11:40:42.867Z,87.85
2017-01-10T11:41:53.305Z,87.75
2017-01-10T11:43:03.745Z,87.55
2017-01-10T11:44:14.184Z,87.65
2017-01-10T11:46:49.623Z,87.46
2017-01-10T11:48:00.055Z,87.55
2017-01-10T11:49:25.041Z,87.02
2017-01-10T11:50:35.670Z,86.63
2017-01-10T11:52:00.850Z,85.86
2017-01-10T11:53:11.287Z,85.37
2017-01-10T11:54:21.724Z,85.41
2017-01-10T11:55:32.162Z,86
2017-01-10T11:56:42.600Z,84.06
2017-01-10T11:58:07.849Z,83.42
2017-01-10T11:59:18.296Z,82.55
2017-01-10T12:00:28.730Z,82.65
2017-01-10T12:01:39.168Z,82.84
2017-01-10T12:03:04.151Z,82.3
2017-01-10T12:04:15.161Z,82.5
2017-01-10T12:05:25.607Z,82.01
2017-01-10T12:06:36.052Z,81.82
2017-01-10T12:07:47.056Z,82.01
2017-01-10T12:08:57.493Z,82.1
2017-01-10T12:10:22.475Z,81.62
2017-01-10T12:11:32.910Z,80.98
2017-01-10T12:12:43.354Z,80.79
2017-01-10T12:13:53.791Z,79.91
2017-01-10T12:15:04.227Z,80.05
2017-01-10T12:16:14.662Z,80.15
2017-01-10T12:17:25.096Z,80.25
2017-01-10T12:18:35.529Z,79.86
2017-01-10T12:19:45.974Z,79.86
2017-01-10T12:20:56.408Z,79.76
2017-01-10T12:22:06.846Z,79.57
2017-01-10T12:23:17.292Z,79.37
2017-01-10T12:24:27.728Z,78.99
2017-01-10T12:25:38.361Z,78.05
2017-01-10T12:26:48.800Z,77.76
2017-01-10T12:27:59.243Z,76.4
2017-01-10T12:29:09.682Z,77.12
2017-01-10T12:30:20.121Z,77.95
2017-01-10T12:31:32.060Z,77.57
2017-01-10T12:32:57.138Z,76.5
2017-01-10T12:34:07.533Z,76.54
2017-01-10T12:35:17.970Z,76.25
2017-01-10T12:36:28.404Z,77.02
2017-01-10T12:37:39.092Z,76.98
2017-01-10T12:38:49.531Z,76.79
2017-01-10T12:39:59.967Z,76.54
2017-01-10T12:41:10.406Z,75.27
2017-01-10T12:42:20.853Z,73.95
2017-01-10T12:43:31.287Z,73.56
2017-01-10T12:44:41.728Z,73.66
2017-01-10T12:45:52.163Z,72.92
2017-01-10T12:47:02.600Z,73.4
2017-01-10T12:48:13.934Z,72.14
2017-01-10T12:49:24.371Z,73.02
2017-01-10T12:50:34.807Z,74.54
2017-01-10T12:51:45.252Z,74.63
2017-01-10T12:52:55.693Z,74.54
2017-01-10T12:54:06.337Z,73.89
2017-01-10T12:55:16.777Z,72.63
2017-01-10T12:56:27.214Z,70.91
2017-01-10T12:57:37.660Z,70.23
2017-01-10T12:58:48.101Z,70.42
2017-01-10T12:59:58.541Z,70.72
2017-01-10T13:01:08.983Z,70.95
2017-01-10T13:02:19.425Z,70.07
2017-01-10T13:03:29.865Z,69.97
2017-01-10T13:04:40.307Z,70.56
2017-01-10T13:05:51.045Z,69.23
2017-01-10T13:07:01.485Z,69.13
2017-01-10T13:08:11.926Z,68.61
2017-01-10T13:09:22.366Z,68.93
2017-01-10T13:10:32.801Z,70.1
2017-01-10T13:11:43.442Z,71.72
2017-01-10T13:12:53.880Z,72.37
2017-01-10T13:14:04.327Z,73.02
2017-01-10T13:15:14.769Z,74.73
2017-01-10T13:16:25.216Z,75.37
2017-01-10T13:17:35.653Z,75.57
2017-01-10T13:18:46.088Z,75.08
2017-01-10T13:19:56.529Z,74.44
2017-01-10T13:21:06.973Z,74.73
2017-01-10T13:22:17.415Z,73.85
2017-01-10T13:23:28.052Z,73.56
2017-01-10T13:24:38.491Z,73.69
2017-01-10T13:25:48.931Z,73.75
2017-01-10T13:26:59.372Z,74.15
2017-01-10T13:28:09.813Z,74.44
2017-01-10T13:29:20.254Z,73.37
2017-01-10T13:30:30.695Z,73.6
2017-01-10T13:31:41.138Z,73.11
2017-01-10T13:32:51.577Z,73.85
2017-01-10T13:34:02.015Z,73.75
2017-01-10T13:35:12.453Z,73.11
2017-01-10T13:36:22.890Z,73.3
2017-01-10T13:37:33.326Z,72.53
2017-01-10T13:38:43.770Z,73.15
2017-01-10T13:39:54.207Z,72.37
2017-01-10T13:41:04.855Z,71.72
2017-01-10T13:42:15.301Z,71.92
2017-01-10T13:43:25.745Z,72.66
2017-01-10T13:44:36.182Z,72.27
2017-01-10T13:45:46.627Z,71.88
2017-01-10T13:47:11.837Z,71.01
2017-01-10T13:48:22.277Z,70.17
2017-01-10T13:49:32.714Z,70.1
2017-01-10T13:50:57.699Z,68.64
2017-01-10T13:52:08.339Z,68.74
2017-01-10T13:53:18.776Z,68.48
2017-01-10T13:54:29.220Z,68.58
2017-01-10T13:55:39.659Z,68.68
2017-01-10T13:56:50.101Z,68.87
2017-01-10T13:58:00.762Z,68.74
2017-01-10T13:59:11.199Z,68.48
2017-01-10T14:00:21.652Z,67.74
2017-01-10T14:01:32.089Z,67.54
2017-01-10T14:02:43.113Z,66.31
2017-01-10T14:03:53.549Z,65.82
2017-01-10T14:05:04.003Z,67.05
2017-01-10T14:06:14.447Z,66.47
2017-01-10T14:07:24.887Z,66.21
2017-01-10T14:08:35.324Z,66.02
2017-01-10T14:09:45.765Z,66.41
2017-01-10T14:10:56.207Z,66.69
2017-01-10T14:13:31.637Z,66.27
2017-01-10T14:14:42.073Z,67.05
2017-01-10T14:15:52.512Z,67.15
2017-01-10T14:17:02.956Z,67.05
2017-01-10T14:18:13.396Z,66.96
2017-01-10T14:19:23.839Z,68.13
2017-01-10T14:20:34.580Z,68.09
2017-01-10T14:23:10.013Z,68.55
2017-01-10T14:24:20.450Z,68.48
2017-01-10T14:25:30.889Z,67.99
2017-01-10T14:26:41.628Z,66.66
2017-01-10T14:27:52.068Z,66.37
2017-01-10T14:29:02.507Z,66.31
2017-01-10T14:30:12.949Z,65.14
2017-01-10T14:31:23.390Z,64.94
2017-01-10T14:32:33.825Z,64.75
2017-01-10T14:33:44.262Z,66.31
2017-01-10T14:34:54.704Z,65.11
2017-01-10T14:36:05.146Z,65.82
2017-01-10T14:37:15.888Z,64.13
2017-01-10T14:38:40.876Z,65.14
2017-01-10T14:39:51.320Z,65.53
2017-01-10T14:41:01.764Z,65.14
2017-01-10T14:42:12.208Z,65.59
2017-01-10T14:43:22.945Z,65.23
2017-01-10T14:44:33.410Z,66.11
2017-01-10T14:45:43.852Z,65.43
2017-01-10T14:46:54.292Z,64.94
2017-01-10T14:48:04.732Z,64.78
2017-01-10T14:49:29.722Z,63.8
2017-01-10T14:50:54.713Z,63.21
2017-01-10T14:52:05.723Z,63.15
2017-01-10T14:53:16.469Z,62.89
2017-01-10T14:54:26.912Z,62.99
2017-01-10T14:55:37.351Z,62.66
2017-01-10T14:56:47.793Z,62.01
2017-01-10T14:57:58.232Z,61.72
2017-01-10T14:59:08.676Z,63.05
2017-01-10T15:00:33.668Z,62.85
2017-01-10T15:01:44.118Z,63.24
2017-01-10T15:02:54.564Z,62.56
2017-01-10T15:04:05.006Z,62.66
2017-01-10T15:05:15.450Z,62.6
2017-01-10T15:06:25.891Z,63.44
2017-01-10T15:07:36.331Z,63.05
2017-01-10T15:08:46.782Z,61.98
2017-01-10T15:09:57.223Z,62.18
2017-01-10T15:11:07.668Z,61.98
2017-01-10T15:12:18.110Z,63.09
2017-01-10T15:13:28.513Z,62.4
2017-01-10T15:14:38.834Z,62.21
2017-01-10T15:17:14.254Z,61.16
2017-01-10T15:18:24.573Z,60.08
2017-01-10T15:19:34.900Z,60.67
2017-01-10T15:22:10.325Z,59.82
2017-01-10T15:23:20.654Z,60.11
2017-01-10T15:24:30.981Z,59.63
2017-01-10T15:25:41.311Z,59.43
2017-01-10T15:26:51.936Z,58.84
2017-01-10T15:28:02.258Z,58.45
2017-01-10T15:29:12.579Z,59.11
2017-01-10T15:30:22.903Z,59.79
2017-01-10T15:31:33.225Z,59.59
2017-01-10T15:32:43.888Z,59.89
2017-01-10T15:33:54.213Z,59.43
2017-01-10T15:35:04.546Z,59.14